events-overview

Kinetic Sprint

 

Overall Women

4/23/2006 09:00PM

** Results are for the private use of participants and are the Intellectual Property of Set Up Events. Unauthorized use of these results is prohibited.

Place Bib Age NAME CITY/STATE Rank SWIM Rank T1 Rank BIKE Rank T2 Rank RUN PENALTY TIME DQ
111334HOLLIE KENNEYBALTIMORE MD200:11:02100:01:04100:48:35400:00:42100:22:07 01:23:29 
211634HEATHER WESTERMANLIGONIER PA100:10:28200:01:11200:49:081400:00:59500:23:13 01:24:57 
318328LINDSAY CAMERAEAST PETERSBURG PA300:11:32300:01:12300:51:381000:00:501300:24:12 01:29:21 
418624LYNN SCHARFFALLS CHURCH VA1000:13:59400:01:21500:53:461800:01:02700:23:19 01:33:26 
53625CARA BRUEANNAPOLIS MD2000:15:17700:01:37900:54:552300:01:07900:23:25 01:36:19 
633129ANNA MACKAYWASHINGTON DC1100:14:142500:02:17600:53:493800:01:241600:24:46 01:36:27 
732534KRISTEN VLAUNBRISTOW VA400:11:392800:02:211100:56:212000:01:052200:25:38 01:37:02 
810029NICOLE WEIDENSAULFREDERICKSBURG VA1400:14:331400:01:53700:53:564100:01:322000:25:25 01:37:16 
922127KRISTY RICEARLINGTON VA2800:15:48900:01:451700:57:572900:01:11200:22:28 01:39:07 
1029143KARLA PAVICHLAKERIDGE VA4100:17:182700:02:21800:54:552400:01:071200:23:54 01:39:32 
1134420ABIGAIL ZIERFORT COLLINS CO500:12:351000:01:461800:58:21     01:39:48 
1211919ERIN SWANSONSANTA ANA CA4300:17:242000:02:061000:56:017000:02:08600:23:14 01:40:52 
1335643PATTI WALLERRICHMOND VA4200:17:241600:01:57400:53:427600:02:471900:25:22 01:41:10 
1412933JENNIFER DUNNLEESBURG VA7600:24:297700:04:577901:18:41     01:41:13 
1517521LAUREN HOLOWESKOWASHINGTON DC1200:14:23600:01:361300:56:35     01:42:56 
164537CHRISSIE SANTWASHINGTON DC2400:15:371700:02:002401:00:593000:01:14800:23:22 01:43:11 
1718537LISA WOLSHCLARKSBURG MD1800:14:593000:02:291600:57:514500:01:323100:26:59 01:43:50 
189432JENNIFER EBERLYRICHMOND VA3700:16:471800:02:011200:56:305400:01:443400:27:19 01:44:19 
1917024KURSTEN WOODARLINGTON VA1600:14:345600:03:204001:03:393500:01:20300:22:30 01:45:22 
20726ALISON KUCHTARICHMOND VA4700:17:302200:02:101400:56:593700:01:214100:28:01 01:45:59 
2125141JILL THORPEWASHINGTON DC3400:16:334000:02:422201:00:363300:01:161700:25:03 01:46:09 
2216030KAREN KLINGLERCHARLOTTESVILLE VA2600:15:393700:02:382000:59:261500:00:594000:27:47 01:46:26 
2311534MARGARET HOWELLARLINGTON VA900:13:543400:02:333101:01:412200:01:063800:27:33 01:46:46 
2424131RACHEL NOSHENYWASHINGTON DC4500:17:264900:03:041500:57:446400:01:553000:26:54 01:47:01 
251721ASHLEY TURNERCULVER IN1500:14:331100:01:492801:01:32100:00:344700:28:43 01:47:09 
2618140LORI CAMPBELLPURCELLVILLE VA3200:16:304400:02:482501:01:031300:00:542500:26:06 01:47:19 
274421CAROLINE BROCHUANNAPOLIS MD2100:15:221500:01:553601:02:157300:02:112100:25:38 01:47:19 
2828235SUSAN WINKLOSKYASHBURN VA2700:15:422600:02:182901:01:334700:01:352900:26:25 01:47:32 
2916133KAREN LAUMCLEAN VA3600:16:462400:02:152601:01:103200:01:152800:26:22 01:47:46 
3029447TORRY CLARKSTAFFORD VA4400:17:252300:02:101900:58:445000:01:374600:28:20 01:48:15 
PlaceBibAgeNAMECITY/STATERankSWIMRankT1RankBIKERankT2RankRUNPENALTYTIMEDQ
3122542PHAEDRA HARGISRICHMOND VA5100:18:221900:02:063201:01:491900:01:052300:25:43 01:49:02 
3230638TRACY WEBSTERBLUEMONT VA3100:16:24500:01:345701:07:372500:01:08400:22:32 01:49:14 
3331330WENDY HARRISSUMTER SC600:12:373600:02:374501:05:18300:00:404300:28:05 01:49:16 
3421928DENISE O''CONNORCHARLOTTESVILLE VA2200:15:246000:03:354301:04:49600:00:431800:25:07 01:49:36 
3533720MEAGHAN STAKELINWASHINGTON DC700:13:194200:02:444601:05:193900:01:293200:27:10 01:49:59 
363427BRITTA SCHUMANNFALLS CHURCH VA800:13:464500:02:484101:03:565200:01:394400:28:06 01:50:13 
373827CARRIE OFFENBACHERARLINGTON VA3500:16:363100:02:325001:05:427200:02:101000:23:44 01:50:41 
3834628SHARYN PERLEE 1700:14:503800:02:393501:02:134200:01:325400:29:38 01:50:50 
3915049JULIA PECKCULPEPER VA5400:18:324700:02:542701:01:304300:01:323900:27:43 01:52:09 
4032434KATI DERRICKROANOKE VA1900:15:102900:02:223701:02:244800:01:365800:30:48 01:52:17 
4117133LARA RAMSEYWASHINGTON DC5800:19:012100:02:073001:01:393100:01:144900:28:45 01:52:45 
42426ASHLEY HALLRICHMOND VA5600:18:363500:02:365101:05:51700:00:462400:25:47 01:53:34 
4335326HARRIET FOSTER 4600:17:281300:01:523401:02:115100:01:386300:31:03 01:54:10 
4422342HALEH PETERSONFALLS CHURCH VA4800:17:403200:02:334201:04:163600:01:205100:28:52 01:54:40 
4529537TRACY LEMPKEALEXANDRIA VA6700:21:537100:04:152100:59:436600:01:593300:27:16 01:55:04 
463244LIZ FRYEMOUNT AIRY MD3800:17:065700:03:244901:05:395900:01:523500:27:20 01:55:18 
4724631ROXANNE TURNERVIENNA VA6400:20:355000:03:053301:01:496000:01:525500:29:39 01:56:58 
488627EMILIE FISHERCHARLOTTESVILLE VA4000:17:113900:02:426501:10:11800:00:492700:26:11 01:57:02 
4921240MICHELE REDROWWENONAH NJ5700:18:447400:04:313801:02:487700:03:064500:28:08 01:57:14 
5028852KATHLEEN THOMASMARSHALL VA3000:16:005300:03:086001:08:01900:00:495200:29:22 01:57:19 
518138DONNA MARZOWASHINGTON DC5900:19:156700:04:043901:03:114000:01:315300:29:26 01:57:24 
5217829LINDSAY ZARWELLWASHINGTON DC4900:17:417300:04:236101:08:046500:01:562600:26:08 01:58:10 
5310823NILOU HUFFWASHINGTON DC7800:25:56800:01:444401:04:512600:01:091500:24:42 01:58:20 
5434051CATHERINE LEECULPEPER VA3300:16:326800:04:075201:05:595500:01:465700:30:43 01:59:05 
5523726MEGAN REEVESRICHMOND VA5200:18:235400:03:115401:06:291600:00:596200:31:03 02:00:03 
569245EVELYN KELLYROANOKE VA6500:20:378200:06:222301:00:416900:02:046100:31:02 02:00:44 
5720842MONICA GLAVÉRICHMOND VA6300:20:164800:02:554701:05:296100:01:535600:30:34 02:01:04 
5820425MARY MALERICHARLINGTON VA2500:15:396400:03:506601:10:201200:00:536000:30:55 02:01:34 
5926925SOPHIA RAFFWASHINGTON DC5300:18:287800:05:016401:09:124400:01:324800:28:44 02:02:55 
6017736LEENA FIGALLMIDDLETOWN MD7500:24:096200:03:446701:11:08200:00:391100:23:50 02:03:28 
61931AMANDA ROBERTSRICHMOND VA2900:15:506500:03:566301:08:254900:01:377000:34:08 02:03:53 
PlaceBibAgeNAMECITY/STATERankSWIMRankT1RankBIKERankT2RankRUNPENALTYTIMEDQ
6233442KAREN VESEYFREDERICKSBURG VA6800:22:188000:05:225601:07:105700:01:484200:28:03 02:04:40 
63143NANCY DACZKOWSKISTERLING VA6200:19:355900:03:305901:07:557500:02:426500:32:02 02:05:41 
6419330MOLLY OSTERRIEDSTERLING VA5500:18:324100:02:425801:07:44500:00:437400:36:25 02:06:04 
658733ERIN MURPHYGLEN ALLEN VA3900:17:091200:01:505501:06:343400:01:207600:39:38 02:06:30 
667650DEBORAH LOWRYRICHMOND VA7000:22:446900:04:115301:06:165300:01:406800:33:06 02:07:54 
6716527KIMBERLEY CLARKEANNAPOLIS MD6100:19:285500:03:137801:18:102700:01:093700:27:29 02:09:27 
685531CHRISTINA WILLIAMSONARLINGTON VA7200:22:517200:04:234801:05:295800:01:527200:35:52 02:10:24 
697144DONNA KNUTSONLEESBURG, VA5000:18:107000:04:147001:13:346800:02:036900:33:31 02:11:30 
7020034MIMI GRANADOSMCLEAN VA7300:22:535800:03:276801:12:561700:01:026400:31:40 02:11:55 
7121319MEGAN TEACHOUTIMPERIAL PA6900:22:434300:02:478101:21:362100:01:051400:24:14 02:12:23 
7217924LEIGH-ANNE LINDENMUTHBLACKSBURG VA           02:15:25 
7332122CATHERINE ZAREMBALEXINGTON VA7700:24:317600:04:567701:17:517100:02:093600:27:22 02:16:47 
749125EMILY SHERMANSPOTSYLVANIA VA2300:15:305200:03:087601:17:226700:01:597700:39:51 02:17:49 
7514031JOANNA PIERCEALEXANDRIA VA8100:26:30         02:17:52 
7624330ROSE KERAVUORIARLINGTON VA8300:26:406600:04:016901:13:077800:03:185900:30:48 02:17:53 
7726633SOO KIMLORTON VA6600:21:086100:03:387201:15:256300:01:557300:36:00 02:18:03 
7826228ELAINE SHENWASHINGTON DC7900:25:596300:03:468001:19:201100:00:515000:28:47 02:18:41 
798837ASHLEY ENOSBURKE VA7400:23:267500:04:547301:16:125600:01:486600:32:30 02:18:48 
8018233LOUISA HARRISONALEXANDRIA VA8000:26:105100:03:067101:14:504600:01:347100:34:09 02:19:47 
8128422JESSICA GEISTCHARLOTTESVILLE VA8400:28:347900:05:056201:08:142800:01:117500:37:30 02:20:32 
8224229CAROLINE MALONEARLINGTON VA1300:14:288300:11:137401:17:008000:06:146700:33:01 02:21:53 
8331445JAN WENSELLEXINGTON PARK MD6000:19:284600:02:498201:31:386200:01:547800:40:18 02:36:04 
844932CECILIA MARTINEZALEXANDRIA VA8200:26:388100:06:087501:17:037400:02:257900:45:17 02:37:28 
852234SHELBY SARGENTHAMPTON VA7100:22:453300:02:338301:37:037900:04:16     

** Results are for the private use of participants and are the Intellectual Property of Set Up Events. Unauthorized use of these results is prohibited.